sensor_id;sensor_type;location;lat;lon;timestamp;temperature;humidity
13642;DHT22;6894;52.196;9.904;2023-04-25T00:00:08;7.70;99.90
13642;DHT22;6894;52.196;9.904;2023-04-25T00:02:35;7.60;99.90
13642;DHT22;6894;52.196;9.904;2023-04-25T00:05:02;7.60;99.90
13642;DHT22;6894;52.196;9.904;2023-04-25T00:07:31;7.70;99.90
13642;DHT22;6894;52.196;9.904;2023-04-25T00:09:58;7.60;99.90
13642;DHT22;6894;52.196;9.904;2023-04-25T00:12:25;7.60;99.90
13642;DHT22;6894;52.196;9.904;2023-04-25T00:14:53;7.50;99.90
13642;DHT22;6894;52.196;9.904;2023-04-25T00:17:22;7.50;99.90
13642;DHT22;6894;52.196;9.904;2023-04-25T00:19:49;7.50;99.90
13642;DHT22;6894;52.196;9.904;2023-04-25T00:22:16;7.50;99.90
13642;DHT22;6894;52.196;9.904;2023-04-25T00:24:44;7.50;99.90
13642;DHT22;6894;52.196;9.904;2023-04-25T00:27:11;7.50;99.90
13642;DHT22;6894;52.196;9.904;2023-04-25T00:29:38;7.50;99.90
13642;DHT22;6894;52.196;9.904;2023-04-25T00:32:05;7.50;99.90
13642;DHT22;6894;52.196;9.904;2023-04-25T00:34:31;7.40;99.90
13642;DHT22;6894;52.196;9.904;2023-04-25T00:36:58;7.40;99.90
13642;DHT22;6894;52.196;9.904;2023-04-25T00:39:27;7.50;99.90
13642;DHT22;6894;52.196;9.904;2023-04-25T00:41:55;7.40;99.90
13642;DHT22;6894;52.196;9.904;2023-04-25T00:44:24;7.40;99.90
13642;DHT22;6894;52.196;9.904;2023-04-25T00:46:52;7.40;99.90
13642;DHT22;6894;52.196;9.904;2023-04-25T00:49:20;7.40;99.90
13642;DHT22;6894;52.196;9.904;2023-04-25T00:51:46;7.30;99.90
13642;DHT22;6894;52.196;9.904;2023-04-25T00:54:14;7.30;99.90
13642;DHT22;6894;52.196;9.904;2023-04-25T00:56:41;7.40;99.90
13642;DHT22;6894;52.196;9.904;2023-04-25T00:59:10;7.30;99.90
13642;DHT22;6894;52.196;9.904;2023-04-25T01:01:37;7.30;99.90
13642;DHT22;6894;52.196;9.904;2023-04-25T01:04:05;7.30;99.90
13642;DHT22;6894;52.196;9.904;2023-04-25T01:06:31;7.30;99.90
13642;DHT22;6894;52.196;9.904;2023-04-25T01:08:59;7.40;99.90
13642;DHT22;6894;52.196;9.904;2023-04-25T01:11:26;7.30;99.90
13642;DHT22;6894;52.196;9.904;2023-04-25T01:13:52;7.30;99.90
13642;DHT22;6894;52.196;9.904;2023-04-25T01:16:21;7.30;99.90
13642;DHT22;6894;52.196;9.904;2023-04-25T01:18:49;7.30;99.90
13642;DHT22;6894;52.196;9.904;2023-04-25T01:21:18;7.40;99.90
13642;DHT22;6894;52.196;9.904;2023-04-25T01:23:45;7.30;99.90
13642;DHT22;6894;52.196;9.904;2023-04-25T01:26:12;7.30;99.90
13642;DHT22;6894;52.196;9.904;2023-04-25T01:28:40;7.20;99.90
13642;DHT22;6894;52.196;9.904;2023-04-25T01:31:07;7.30;99.90
13642;DHT22;6894;52.196;9.904;2023-04-25T01:33:34;7.30;99.90
13642;DHT22;6894;52.196;9.904;2023-04-25T01:36:01;7.20;99.90
13642;DHT22;6894;52.196;9.904;2023-04-25T01:38:29;7.20;99.90
13642;DHT22;6894;52.196;9.904;2023-04-25T01:40:56;7.20;99.90
13642;DHT22;6894;52.196;9.904;2023-04-25T01:43:23;7.20;99.90
13642;DHT22;6894;52.196;9.904;2023-04-25T01:45:51;7.20;99.90
13642;DHT22;6894;52.196;9.904;2023-04-25T01:48:18;7.20;99.90
13642;DHT22;6894;52.196;9.904;2023-04-25T01:50:45;7.20;99.90
13642;DHT22;6894;52.196;9.904;2023-04-25T01:53:13;7.20;99.90
13642;DHT22;6894;52.196;9.904;2023-04-25T01:55:41;7.20;99.90
13642;DHT22;6894;52.196;9.904;2023-04-25T01:58:08;7.20;99.90
13642;DHT22;6894;52.196;9.904;2023-04-25T02:00:38;7.20;99.90
13642;DHT22;6894;52.196;9.904;2023-04-25T02:03:06;7.20;99.90
13642;DHT22;6894;52.196;9.904;2023-04-25T02:05:37;8.00;99.90
13642;DHT22;6894;52.196;9.904;2023-04-25T02:08:05;6.60;99.90
13642;DHT22;6894;52.196;9.904;2023-04-25T02:10:32;7.20;99.90
13642;DHT22;6894;52.196;9.904;2023-04-25T02:13:00;7.20;99.90
13642;DHT22;6894;52.196;9.904;2023-04-25T02:15:27;7.20;99.90
13642;DHT22;6894;52.196;9.904;2023-04-25T02:17:54;7.20;99.90
13642;DHT22;6894;52.196;9.904;2023-04-25T02:20:22;7.20;99.90
13642;DHT22;6894;52.196;9.904;2023-04-25T02:22:49;7.20;99.90
13642;DHT22;6894;52.196;9.904;2023-04-25T02:25:16;7.20;99.90
13642;DHT22;6894;52.196;9.904;2023-04-25T02:27:45;7.20;99.90
13642;DHT22;6894;52.196;9.904;2023-04-25T02:30:13;7.20;99.90
13642;DHT22;6894;52.196;9.904;2023-04-25T02:32:40;7.20;99.90
13642;DHT22;6894;52.196;9.904;2023-04-25T02:35:08;7.10;99.90
13642;DHT22;6894;52.196;9.904;2023-04-25T02:37:36;7.10;99.90
13642;DHT22;6894;52.196;9.904;2023-04-25T02:40:03;7.00;99.90
13642;DHT22;6894;52.196;9.904;2023-04-25T02:42:31;7.00;99.90
13642;DHT22;6894;52.196;9.904;2023-04-25T02:44:57;7.10;99.90
13642;DHT22;6894;52.196;9.904;2023-04-25T02:47:26;7.00;99.90
13642;DHT22;6894;52.196;9.904;2023-04-25T02:49:52;7.00;99.90
13642;DHT22;6894;52.196;9.904;2023-04-25T02:52:19;7.00;99.90
13642;DHT22;6894;52.196;9.904;2023-04-25T02:54:46;7.00;99.90
13642;DHT22;6894;52.196;9.904;2023-04-25T02:57:13;6.90;99.90
13642;DHT22;6894;52.196;9.904;2023-04-25T02:59:40;6.90;99.90
13642;DHT22;6894;52.196;9.904;2023-04-25T03:02:06;6.90;99.90
13642;DHT22;6894;52.196;9.904;2023-04-25T03:04:35;6.80;99.90
13642;DHT22;6894;52.196;9.904;2023-04-25T03:07:01;6.80;99.90
13642;DHT22;6894;52.196;9.904;2023-04-25T03:09:28;6.70;99.90
13642;DHT22;6894;52.196;9.904;2023-04-25T03:11:55;6.60;99.90
13642;DHT22;6894;52.196;9.904;2023-04-25T03:14:22;6.70;99.90
13642;DHT22;6894;52.196;9.904;2023-04-25T03:16:48;6.70;99.90
13642;DHT22;6894;52.196;9.904;2023-04-25T03:19:15;6.70;99.90
13642;DHT22;6894;52.196;9.904;2023-04-25T03:21:44;6.60;99.90
13642;DHT22;6894;52.196;9.904;2023-04-25T03:24:11;6.60;99.90
13642;DHT22;6894;52.196;9.904;2023-04-25T03:26:37;6.60;99.90
13642;DHT22;6894;52.196;9.904;2023-04-25T03:29:04;6.60;99.90
13642;DHT22;6894;52.196;9.904;2023-04-25T03:31:31;6.60;99.90
13642;DHT22;6894;52.196;9.904;2023-04-25T03:33:58;6.50;99.90
13642;DHT22;6894;52.196;9.904;2023-04-25T03:36:25;6.60;99.90
13642;DHT22;6894;52.196;9.904;2023-04-25T03:38:53;6.60;99.90
13642;DHT22;6894;52.196;9.904;2023-04-25T03:41:20;6.50;99.90
13642;DHT22;6894;52.196;9.904;2023-04-25T03:43:46;6.50;99.90
13642;DHT22;6894;52.196;9.904;2023-04-25T03:46:13;6.50;99.90
13642;DHT22;6894;52.196;9.904;2023-04-25T03:48:40;6.50;99.90
13642;DHT22;6894;52.196;9.904;2023-04-25T03:51:07;6.50;99.90
13642;DHT22;6894;52.196;9.904;2023-04-25T03:53:33;6.50;99.90
13642;DHT22;6894;52.196;9.904;2023-04-25T03:56:01;6.40;99.90
13642;DHT22;6894;52.196;9.904;2023-04-25T03:58:28;6.40;99.90
13642;DHT22;6894;52.196;9.904;2023-04-25T04:00:55;6.50;99.90
13642;DHT22;6894;52.196;9.904;2023-04-25T04:03:22;6.40;99.90
13642;DHT22;6894;52.196;9.904;2023-04-25T04:05:48;6.40;99.90
13642;DHT22;6894;52.196;9.904;2023-04-25T04:08:15;6.50;99.90
13642;DHT22;6894;52.196;9.904;2023-04-25T04:10:42;6.40;99.90
13642;DHT22;6894;52.196;9.904;2023-04-25T04:13:10;6.40;99.90
13642;DHT22;6894;52.196;9.904;2023-04-25T04:15:37;6.40;99.90
13642;DHT22;6894;52.196;9.904;2023-04-25T04:18:04;6.40;99.90
13642;DHT22;6894;52.196;9.904;2023-04-25T04:20:31;6.40;99.90
13642;DHT22;6894;52.196;9.904;2023-04-25T04:22:58;6.40;99.90
13642;DHT22;6894;52.196;9.904;2023-04-25T04:25:25;6.50;99.90
13642;DHT22;6894;52.196;9.904;2023-04-25T04:27:51;6.50;99.90
13642;DHT22;6894;52.196;9.904;2023-04-25T04:30:21;6.50;99.90
13642;DHT22;6894;52.196;9.904;2023-04-25T04:32:49;6.50;99.90
13642;DHT22;6894;52.196;9.904;2023-04-25T04:35:16;6.50;99.90
13642;DHT22;6894;52.196;9.904;2023-04-25T04:37:43;6.60;99.90
13642;DHT22;6894;52.196;9.904;2023-04-25T04:40:11;6.60;99.90
13642;DHT22;6894;52.196;9.904;2023-04-25T04:42:40;6.50;99.90
13642;DHT22;6894;52.196;9.904;2023-04-25T04:45:08;6.60;99.90
13642;DHT22;6894;52.196;9.904;2023-04-25T04:47:36;6.60;99.90
13642;DHT22;6894;52.196;9.904;2023-04-25T04:50:05;6.70;99.90
13642;DHT22;6894;52.196;9.904;2023-04-25T04:52:34;6.60;99.90
13642;DHT22;6894;52.196;9.904;2023-04-25T04:55:00;6.60;99.90
13642;DHT22;6894;52.196;9.904;2023-04-25T04:57:28;6.50;99.90
13642;DHT22;6894;52.196;9.904;2023-04-25T04:59:55;6.60;99.90
13642;DHT22;6894;52.196;9.904;2023-04-25T05:02:22;6.60;99.90
13642;DHT22;6894;52.196;9.904;2023-04-25T05:04:50;6.70;99.90
13642;DHT22;6894;52.196;9.904;2023-04-25T05:07:17;6.60;99.90
13642;DHT22;6894;52.196;9.904;2023-04-25T05:09:43;6.70;99.90
13642;DHT22;6894;52.196;9.904;2023-04-25T05:12:10;6.70;99.90
13642;DHT22;6894;52.196;9.904;2023-04-25T05:14:37;6.70;99.90
13642;DHT22;6894;52.196;9.904;2023-04-25T05:17:04;6.80;99.90
13642;DHT22;6894;52.196;9.904;2023-04-25T05:19:33;6.80;99.90
13642;DHT22;6894;52.196;9.904;2023-04-25T05:22:02;6.80;99.90
13642;DHT22;6894;52.196;9.904;2023-04-25T05:24:29;6.80;99.90
13642;DHT22;6894;52.196;9.904;2023-04-25T05:26:56;6.80;99.90
13642;DHT22;6894;52.196;9.904;2023-04-25T05:29:22;6.70;99.90
13642;DHT22;6894;52.196;9.904;2023-04-25T05:31:49;6.70;99.90
13642;DHT22;6894;52.196;9.904;2023-04-25T05:34:16;6.70;99.90
13642;DHT22;6894;52.196;9.904;2023-04-25T05:36:43;6.80;99.90
13642;DHT22;6894;52.196;9.904;2023-04-25T05:39:11;6.90;99.90
13642;DHT22;6894;52.196;9.904;2023-04-25T05:41:38;7.00;99.90
13642;DHT22;6894;52.196;9.904;2023-04-25T05:44:05;7.00;99.90
13642;DHT22;6894;52.196;9.904;2023-04-25T05:46:32;7.10;99.90
13642;DHT22;6894;52.196;9.904;2023-04-25T05:48:59;7.20;99.90
13642;DHT22;6894;52.196;9.904;2023-04-25T05:51:25;7.20;99.90
13642;DHT22;6894;52.196;9.904;2023-04-25T05:53:53;7.30;99.90
13642;DHT22;6894;52.196;9.904;2023-04-25T05:56:21;7.40;99.90
13642;DHT22;6894;52.196;9.904;2023-04-25T05:58:47;7.30;99.90
13642;DHT22;6894;52.196;9.904;2023-04-25T06:01:14;7.30;99.90
13642;DHT22;6894;52.196;9.904;2023-04-25T06:03:41;7.40;99.90
13642;DHT22;6894;52.196;9.904;2023-04-25T06:06:09;7.40;99.90
13642;DHT22;6894;52.196;9.904;2023-04-25T06:08:35;7.50;99.90
13642;DHT22;6894;52.196;9.904;2023-04-25T06:11:03;7.60;99.90
13642;DHT22;6894;52.196;9.904;2023-04-25T06:13:31;7.80;99.90
13642;DHT22;6894;52.196;9.904;2023-04-25T06:15:58;7.80;99.90
13642;DHT22;6894;52.196;9.904;2023-04-25T06:18:26;7.80;99.90
13642;DHT22;6894;52.196;9.904;2023-04-25T06:20:52;7.70;99.90
13642;DHT22;6894;52.196;9.904;2023-04-25T06:23:19;7.60;99.90
13642;DHT22;6894;52.196;9.904;2023-04-25T06:25:46;7.60;99.90
13642;DHT22;6894;52.196;9.904;2023-04-25T06:28:13;7.60;99.90
13642;DHT22;6894;52.196;9.904;2023-04-25T06:30:41;7.60;99.90
13642;DHT22;6894;52.196;9.904;2023-04-25T06:33:08;7.70;99.90
13642;DHT22;6894;52.196;9.904;2023-04-25T06:35:35;7.70;99.90
13642;DHT22;6894;52.196;9.904;2023-04-25T06:38:01;7.70;99.90
13642;DHT22;6894;52.196;9.904;2023-04-25T06:40:28;7.70;99.90
13642;DHT22;6894;52.196;9.904;2023-04-25T06:42:55;7.80;99.90
13642;DHT22;6894;52.196;9.904;2023-04-25T06:45:22;7.90;99.90
13642;DHT22;6894;52.196;9.904;2023-04-25T06:47:50;7.90;99.90
13642;DHT22;6894;52.196;9.904;2023-04-25T06:50:16;8.00;99.90
13642;DHT22;6894;52.196;9.904;2023-04-25T06:52:43;8.00;99.90
13642;DHT22;6894;52.196;9.904;2023-04-25T06:55:10;8.10;99.90
13642;DHT22;6894;52.196;9.904;2023-04-25T06:57:37;8.40;99.90
13642;DHT22;6894;52.196;9.904;2023-04-25T07:00:05;8.50;99.90
13642;DHT22;6894;52.196;9.904;2023-04-25T07:02:34;8.50;99.90
13642;DHT22;6894;52.196;9.904;2023-04-25T07:05:02;8.80;1.00
13642;DHT22;6894;52.196;9.904;2023-04-25T07:07:29;9.10;4.10
13642;DHT22;6894;52.196;9.904;2023-04-25T07:09:56;9.20;99.90
13642;DHT22;6894;52.196;9.904;2023-04-25T07:12:23;9.30;99.90
13642;DHT22;6894;52.196;9.904;2023-04-25T07:14:50;8.90;99.90
13642;DHT22;6894;52.196;9.904;2023-04-25T07:17:17;9.00;99.90
13642;DHT22;6894;52.196;9.904;2023-04-25T07:19:43;9.10;99.90
13642;DHT22;6894;52.196;9.904;2023-04-25T07:22:12;9.30;99.90
13642;DHT22;6894;52.196;9.904;2023-04-25T07:24:38;9.30;99.90
13642;DHT22;6894;52.196;9.904;2023-04-25T07:27:05;9.30;99.90
13642;DHT22;6894;52.196;9.904;2023-04-25T07:29:32;9.50;99.90
13642;DHT22;6894;52.196;9.904;2023-04-25T07:32:02;9.60;99.90
13642;DHT22;6894;52.196;9.904;2023-04-25T07:34:29;9.50;99.90
13642;DHT22;6894;52.196;9.904;2023-04-25T07:36:57;9.80;99.90
13642;DHT22;6894;52.196;9.904;2023-04-25T07:39:26;9.90;99.90
13642;DHT22;6894;52.196;9.904;2023-04-25T07:41:52;9.90;99.90
13642;DHT22;6894;52.196;9.904;2023-04-25T07:44:20;10.00;99.90
13642;DHT22;6894;52.196;9.904;2023-04-25T07:46:46;9.60;99.90
13642;DHT22;6894;52.196;9.904;2023-04-25T07:49:13;9.30;99.90
13642;DHT22;6894;52.196;9.904;2023-04-25T07:51:40;9.60;99.90
13642;DHT22;6894;52.196;9.904;2023-04-25T07:54:08;9.70;99.90
13642;DHT22;6894;52.196;9.904;2023-04-25T07:56:36;9.80;99.90
13642;DHT22;6894;52.196;9.904;2023-04-25T07:59:03;9.70;99.90
13642;DHT22;6894;52.196;9.904;2023-04-25T08:01:30;9.40;99.90
13642;DHT22;6894;52.196;9.904;2023-04-25T08:03:57;9.20;99.90
13642;DHT22;6894;52.196;9.904;2023-04-25T08:06:24;9.10;99.90
13642;DHT22;6894;52.196;9.904;2023-04-25T08:08:51;8.90;99.90
13642;DHT22;6894;52.196;9.904;2023-04-25T08:11:17;8.80;1.00
13642;DHT22;6894;52.196;9.904;2023-04-25T08:13:46;8.70;99.90
13642;DHT22;6894;52.196;9.904;2023-04-25T08:16:12;8.80;99.90
13642;DHT22;6894;52.196;9.904;2023-04-25T08:18:39;8.90;99.90
13642;DHT22;6894;52.196;9.904;2023-04-25T08:21:06;9.10;99.90
13642;DHT22;6894;52.196;9.904;2023-04-25T08:23:34;9.10;99.90
13642;DHT22;6894;52.196;9.904;2023-04-25T08:26:01;9.20;99.90
13642;DHT22;6894;52.196;9.904;2023-04-25T08:28:28;9.30;99.90
13642;DHT22;6894;52.196;9.904;2023-04-25T08:30:56;9.40;99.90
13642;DHT22;6894;52.196;9.904;2023-04-25T08:33:23;9.40;99.90
13642;DHT22;6894;52.196;9.904;2023-04-25T08:35:50;9.50;99.90
13642;DHT22;6894;52.196;9.904;2023-04-25T08:38:17;10.50;99.90
13642;DHT22;6894;52.196;9.904;2023-04-25T08:40:49;9.60;99.90
13642;DHT22;6894;52.196;9.904;2023-04-25T08:43:18;9.90;99.90
13642;DHT22;6894;52.196;9.904;2023-04-25T08:45:46;10.30;99.90
13642;DHT22;6894;52.196;9.904;2023-04-25T08:48:16;10.80;99.90
13642;DHT22;6894;52.196;9.904;2023-04-25T08:50:46;11.20;99.90
13642;DHT22;6894;52.196;9.904;2023-04-25T08:53:16;11.30;99.90
13642;DHT22;6894;52.196;9.904;2023-04-25T08:55:45;11.00;99.90
13642;DHT22;6894;52.196;9.904;2023-04-25T08:58:13;11.40;99.90
13642;DHT22;6894;52.196;9.904;2023-04-25T09:00:40;11.40;99.90
13642;DHT22;6894;52.196;9.904;2023-04-25T09:03:07;11.70;99.90
13642;DHT22;6894;52.196;9.904;2023-04-25T09:05:35;12.20;99.90
13642;DHT22;6894;52.196;9.904;2023-04-25T09:08:02;12.40;99.90
13642;DHT22;6894;52.196;9.904;2023-04-25T09:10:29;12.30;99.90
13642;DHT22;6894;52.196;9.904;2023-04-25T09:13:03;11.50;99.90
13642;DHT22;6894;52.196;9.904;2023-04-25T09:15:31;11.20;99.90
13642;DHT22;6894;52.196;9.904;2023-04-25T09:17:59;10.80;99.90
13642;DHT22;6894;52.196;9.904;2023-04-25T09:20:26;10.50;1.00
13642;DHT22;6894;52.196;9.904;2023-04-25T09:23:03;10.50;99.90
13642;DHT22;6894;52.196;9.904;2023-04-25T09:25:34;10.10;99.90
13642;DHT22;6894;52.196;9.904;2023-04-25T09:28:05;9.80;99.90
13642;DHT22;6894;52.196;9.904;2023-04-25T09:30:33;9.70;99.90
13642;DHT22;6894;52.196;9.904;2023-04-25T09:33:04;9.60;99.90
13642;DHT22;6894;52.196;9.904;2023-04-25T09:35:36;9.50;99.90
13642;DHT22;6894;52.196;9.904;2023-04-25T09:38:09;9.60;99.90
13642;DHT22;6894;52.196;9.904;2023-04-25T09:40:39;9.80;99.90
13642;DHT22;6894;52.196;9.904;2023-04-25T09:43:09;10.30;99.90
13642;DHT22;6894;52.196;9.904;2023-04-25T09:45:41;10.90;99.90
13642;DHT22;6894;52.196;9.904;2023-04-25T09:48:11;11.20;99.90
13642;DHT22;6894;52.196;9.904;2023-04-25T09:50:38;10.90;99.90
13642;DHT22;6894;52.196;9.904;2023-04-25T09:53:05;11.00;99.90
13642;DHT22;6894;52.196;9.904;2023-04-25T09:55:34;11.50;99.90
13642;DHT22;6894;52.196;9.904;2023-04-25T09:58:04;11.80;99.90
13642;DHT22;6894;52.196;9.904;2023-04-25T10:00:32;12.00;99.90
13642;DHT22;6894;52.196;9.904;2023-04-25T10:03:01;11.80;99.90
13642;DHT22;6894;52.196;9.904;2023-04-25T10:05:31;11.30;99.90
13642;DHT22;6894;52.196;9.904;2023-04-25T10:08:00;11.00;99.90
13642;DHT22;6894;52.196;9.904;2023-04-25T10:10:30;10.80;99.90
13642;DHT22;6894;52.196;9.904;2023-04-25T10:13:05;10.40;99.90
13642;DHT22;6894;52.196;9.904;2023-04-25T10:15:35;10.30;99.90
13642;DHT22;6894;52.196;9.904;2023-04-25T10:18:03;10.40;99.90
13642;DHT22;6894;52.196;9.904;2023-04-25T10:20:30;10.50;99.90
13642;DHT22;6894;52.196;9.904;2023-04-25T10:23:03;10.40;99.90
13642;DHT22;6894;52.196;9.904;2023-04-25T10:25:31;10.90;99.90
13642;DHT22;6894;52.196;9.904;2023-04-25T10:28:00;11.00;99.90
13642;DHT22;6894;52.196;9.904;2023-04-25T10:30:31;11.10;99.90
13642;DHT22;6894;52.196;9.904;2023-04-25T10:32:59;11.50;99.90
13642;DHT22;6894;52.196;9.904;2023-04-25T10:35:27;11.60;99.90
13642;DHT22;6894;52.196;9.904;2023-04-25T10:37:59;11.90;99.90
13642;DHT22;6894;52.196;9.904;2023-04-25T10:40:27;11.80;99.90
13642;DHT22;6894;52.196;9.904;2023-04-25T10:42:54;11.40;99.90
13642;DHT22;6894;52.196;9.904;2023-04-25T10:45:22;11.00;99.90
13642;DHT22;6894;52.196;9.904;2023-04-25T10:47:50;10.90;99.90
13642;DHT22;6894;52.196;9.904;2023-04-25T10:50:17;10.60;99.90
13642;DHT22;6894;52.196;9.904;2023-04-25T10:52:43;10.50;99.90
13642;DHT22;6894;52.196;9.904;2023-04-25T10:55:10;10.40;99.90
13642;DHT22;6894;52.196;9.904;2023-04-25T10:57:39;10.30;99.90
13642;DHT22;6894;52.196;9.904;2023-04-25T11:00:12;10.40;99.90
13642;DHT22;6894;52.196;9.904;2023-04-25T11:02:45;10.30;1.00
13642;DHT22;6894;52.196;9.904;2023-04-25T11:05:23;10.10;99.90
13642;DHT22;6894;52.196;9.904;2023-04-25T11:07:53;10.20;1.00
13642;DHT22;6894;52.196;9.904;2023-04-25T11:10:25;10.20;99.90
13642;DHT22;6894;52.196;9.904;2023-04-25T11:12:52;10.20;99.90
13642;DHT22;6894;52.196;9.904;2023-04-25T11:15:19;10.20;99.90
13642;DHT22;6894;52.196;9.904;2023-04-25T11:17:45;10.20;99.90
13642;DHT22;6894;52.196;9.904;2023-04-25T11:20:13;10.10;99.90
13642;DHT22;6894;52.196;9.904;2023-04-25T11:22:41;10.10;99.90
13642;DHT22;6894;52.196;9.904;2023-04-25T11:25:11;10.20;99.90
13642;DHT22;6894;52.196;9.904;2023-04-25T11:27:48;10.20;99.90
13642;DHT22;6894;52.196;9.904;2023-04-25T11:30:16;10.30;99.90
13642;DHT22;6894;52.196;9.904;2023-04-25T11:32:43;10.20;99.90
13642;DHT22;6894;52.196;9.904;2023-04-25T11:35:10;10.20;99.90
13642;DHT22;6894;52.196;9.904;2023-04-25T11:37:38;10.10;99.90
13642;DHT22;6894;52.196;9.904;2023-04-25T11:40:08;10.00;99.90
13642;DHT22;6894;52.196;9.904;2023-04-25T11:42:37;9.90;99.90
13642;DHT22;6894;52.196;9.904;2023-04-25T11:45:05;10.30;99.90
13642;DHT22;6894;52.196;9.904;2023-04-25T11:47:33;10.70;99.90
13642;DHT22;6894;52.196;9.904;2023-04-25T11:50:00;10.50;99.90
13642;DHT22;6894;52.196;9.904;2023-04-25T11:52:36;10.50;99.90
13642;DHT22;6894;52.196;9.904;2023-04-25T11:55:07;10.40;99.90
13642;DHT22;6894;52.196;9.904;2023-04-25T11:57:34;10.50;99.90
13642;DHT22;6894;52.196;9.904;2023-04-25T12:00:11;10.40;99.90
13642;DHT22;6894;52.196;9.904;2023-04-25T12:02:41;10.20;99.90
13642;DHT22;6894;52.196;9.904;2023-04-25T12:05:08;10.20;99.90
13642;DHT22;6894;52.196;9.904;2023-04-25T12:07:36;10.10;99.90
13642;DHT22;6894;52.196;9.904;2023-04-25T12:10:09;10.00;99.90
13642;DHT22;6894;52.196;9.904;2023-04-25T12:12:37;9.50;99.90
13642;DHT22;6894;52.196;9.904;2023-04-25T12:15:12;9.30;99.90
13642;DHT22;6894;52.196;9.904;2023-04-25T12:17:41;9.10;99.90
13642;DHT22;6894;52.196;9.904;2023-04-25T12:20:09;9.00;99.90
13642;DHT22;6894;52.196;9.904;2023-04-25T12:22:36;8.90;99.90
13642;DHT22;6894;52.196;9.904;2023-04-25T12:25:03;8.90;99.90
13642;DHT22;6894;52.196;9.904;2023-04-25T12:27:32;8.70;99.90
13642;DHT22;6894;52.196;9.904;2023-04-25T12:29:59;8.80;99.90
13642;DHT22;6894;52.196;9.904;2023-04-25T12:32:27;9.00;99.90
13642;DHT22;6894;52.196;9.904;2023-04-25T12:34:54;9.10;99.90
13642;DHT22;6894;52.196;9.904;2023-04-25T12:37:21;9.30;99.90
13642;DHT22;6894;52.196;9.904;2023-04-25T12:39:48;9.40;99.90
13642;DHT22;6894;52.196;9.904;2023-04-25T12:42:14;9.70;99.90
13642;DHT22;6894;52.196;9.904;2023-04-25T12:44:42;9.80;99.90
13642;DHT22;6894;52.196;9.904;2023-04-25T12:47:09;10.40;99.90
13642;DHT22;6894;52.196;9.904;2023-04-25T12:49:36;10.90;99.90
13642;DHT22;6894;52.196;9.904;2023-04-25T12:52:03;11.20;99.90
13642;DHT22;6894;52.196;9.904;2023-04-25T12:54:30;11.70;99.90
13642;DHT22;6894;52.196;9.904;2023-04-25T12:56:57;12.00;99.90
13642;DHT22;6894;52.196;9.904;2023-04-25T12:59:24;12.20;99.90
13642;DHT22;6894;52.196;9.904;2023-04-25T13:01:52;12.50;99.90
13642;DHT22;6894;52.196;9.904;2023-04-25T13:04:19;12.30;99.90
13642;DHT22;6894;52.196;9.904;2023-04-25T13:06:46;12.40;99.90
13642;DHT22;6894;52.196;9.904;2023-04-25T13:09:13;12.10;99.90
13642;DHT22;6894;52.196;9.904;2023-04-25T13:11:41;11.90;99.90
13642;DHT22;6894;52.196;9.904;2023-04-25T13:14:07;11.40;99.90
13642;DHT22;6894;52.196;9.904;2023-04-25T13:16:34;11.40;99.90
13642;DHT22;6894;52.196;9.904;2023-04-25T13:19:02;11.20;99.90
13642;DHT22;6894;52.196;9.904;2023-04-25T13:21:30;10.90;99.90
13642;DHT22;6894;52.196;9.904;2023-04-25T13:23:57;10.50;99.90
13642;DHT22;6894;52.196;9.904;2023-04-25T13:26:25;10.40;99.90
13642;DHT22;6894;52.196;9.904;2023-04-25T13:28:52;10.20;99.90
13642;DHT22;6894;52.196;9.904;2023-04-25T13:31:19;9.80;99.90
13642;DHT22;6894;52.196;9.904;2023-04-25T13:33:46;9.80;99.90
13642;DHT22;6894;52.196;9.904;2023-04-25T13:36:14;9.70;99.90
13642;DHT22;6894;52.196;9.904;2023-04-25T13:38:41;9.70;99.90
13642;DHT22;6894;52.196;9.904;2023-04-25T13:41:09;9.50;99.90
13642;DHT22;6894;52.196;9.904;2023-04-25T13:43:36;9.20;99.90
13642;DHT22;6894;52.196;9.904;2023-04-25T13:46:03;9.20;99.90
13642;DHT22;6894;52.196;9.904;2023-04-25T13:48:30;9.00;99.90
13642;DHT22;6894;52.196;9.904;2023-04-25T13:50:57;9.10;99.90
13642;DHT22;6894;52.196;9.904;2023-04-25T13:53:25;9.20;99.90
13642;DHT22;6894;52.196;9.904;2023-04-25T13:55:52;9.20;99.90
13642;DHT22;6894;52.196;9.904;2023-04-25T13:58:19;9.30;99.90
13642;DHT22;6894;52.196;9.904;2023-04-25T14:00:46;9.20;99.90
13642;DHT22;6894;52.196;9.904;2023-04-25T14:03:13;9.40;99.90
13642;DHT22;6894;52.196;9.904;2023-04-25T14:05:40;9.70;99.90
13642;DHT22;6894;52.196;9.904;2023-04-25T14:08:07;10.00;99.90
13642;DHT22;6894;52.196;9.904;2023-04-25T14:10:36;10.20;99.90
13642;DHT22;6894;52.196;9.904;2023-04-25T14:13:03;10.50;99.90
13642;DHT22;6894;52.196;9.904;2023-04-25T14:15:31;10.80;99.90
13642;DHT22;6894;52.196;9.904;2023-04-25T14:17:58;11.30;99.90
13642;DHT22;6894;52.196;9.904;2023-04-25T14:20:25;11.30;99.90
13642;DHT22;6894;52.196;9.904;2023-04-25T14:22:52;11.10;99.90
13642;DHT22;6894;52.196;9.904;2023-04-25T14:25:20;11.20;99.90
13642;DHT22;6894;52.196;9.904;2023-04-25T14:27:48;11.20;99.90
13642;DHT22;6894;52.196;9.904;2023-04-25T14:30:16;10.90;99.90
13642;DHT22;6894;52.196;9.904;2023-04-25T14:32:43;10.80;99.90
13642;DHT22;6894;52.196;9.904;2023-04-25T14:35:10;10.60;99.90
13642;DHT22;6894;52.196;9.904;2023-04-25T14:37:37;9.90;99.90
13642;DHT22;6894;52.196;9.904;2023-04-25T14:40:05;9.20;99.90
13642;DHT22;6894;52.196;9.904;2023-04-25T14:42:34;9.00;99.90
13642;DHT22;6894;52.196;9.904;2023-04-25T14:45:02;8.90;99.90
13642;DHT22;6894;52.196;9.904;2023-04-25T14:47:29;8.90;99.90
13642;DHT22;6894;52.196;9.904;2023-04-25T14:49:57;9.00;99.90
13642;DHT22;6894;52.196;9.904;2023-04-25T14:52:23;8.90;99.90
13642;DHT22;6894;52.196;9.904;2023-04-25T14:54:51;9.10;99.90
13642;DHT22;6894;52.196;9.904;2023-04-25T14:57:18;9.30;99.90
13642;DHT22;6894;52.196;9.904;2023-04-25T14:59:44;9.50;99.90
13642;DHT22;6894;52.196;9.904;2023-04-25T15:02:13;9.70;99.90
13642;DHT22;6894;52.196;9.904;2023-04-25T15:04:39;10.00;99.90
13642;DHT22;6894;52.196;9.904;2023-04-25T15:07:07;10.20;99.90
13642;DHT22;6894;52.196;9.904;2023-04-25T15:09:34;10.30;99.90
13642;DHT22;6894;52.196;9.904;2023-04-25T15:12:00;10.50;99.90
13642;DHT22;6894;52.196;9.904;2023-04-25T15:14:28;10.60;99.90
13642;DHT22;6894;52.196;9.904;2023-04-25T15:16:56;10.40;99.90
13642;DHT22;6894;52.196;9.904;2023-04-25T15:19:25;10.30;99.90
13642;DHT22;6894;52.196;9.904;2023-04-25T15:21:52;10.50;99.90
13642;DHT22;6894;52.196;9.904;2023-04-25T15:24:19;10.60;99.90
13642;DHT22;6894;52.196;9.904;2023-04-25T15:26:46;10.60;99.90
13642;DHT22;6894;52.196;9.904;2023-04-25T15:29:13;10.40;99.90
13642;DHT22;6894;52.196;9.904;2023-04-25T15:31:40;10.40;99.90
13642;DHT22;6894;52.196;9.904;2023-04-25T15:34:07;10.10;99.90
13642;DHT22;6894;52.196;9.904;2023-04-25T15:36:35;10.00;99.90
13642;DHT22;6894;52.196;9.904;2023-04-25T15:39:02;9.90;99.90
13642;DHT22;6894;52.196;9.904;2023-04-25T15:41:29;10.10;99.90
13642;DHT22;6894;52.196;9.904;2023-04-25T15:43:56;10.10;99.90
13642;DHT22;6894;52.196;9.904;2023-04-25T15:46:25;10.30;99.90
13642;DHT22;6894;52.196;9.904;2023-04-25T15:48:52;10.40;99.90
13642;DHT22;6894;52.196;9.904;2023-04-25T15:51:18;10.50;99.90
13642;DHT22;6894;52.196;9.904;2023-04-25T15:53:47;10.40;99.90
13642;DHT22;6894;52.196;9.904;2023-04-25T15:56:13;10.30;99.90
13642;DHT22;6894;52.196;9.904;2023-04-25T15:58:40;10.20;99.90